Time;durP1;ratioP1;P1;durP2;ratioP2;P2;SDS_P1;SDS_P2;PMS_P1;PMS_P2;Temp;Humidity;BMP_temperature;BMP_pressure;BME280_temperature;BME280_humidity;BME280_pressure;Samples;Min_cycle;Max_cycle;Signal;HPM_P1;HPM_P2
2022/03/09 00:01:50;;;;;;;33.80;23.90;;;;;;;1.74;59.73;94486.66;5074953;28;20173;-76
2022/03/09 00:04:15;;;;;;;33.63;21.93;;;;;;;1.80;59.54;94480.09;5074263;28;20185;-78
2022/03/09 00:06:41;;;;;;;35.40;20.60;;;;;;;1.62;59.22;94487.81;5058477;28;20209;-76
2022/03/09 00:09:06;;;;;;;35.23;21.63;;;;;;;1.77;58.91;94484.75;5073093;28;20209;-77
2022/03/09 00:11:32;;;;;;;35.30;22.47;;;;;;;1.37;60.42;94489.28;5076014;28;20185;-77
2022/03/09 00:13:58;;;;;;;35.00;21.00;;;;;;;1.33;60.59;94478.44;5069897;28;20229;-77
2022/03/09 00:16:24;;;;;;;36.28;22.52;;;;;;;1.52;59.56;94487.06;5081660;28;20169;-77
2022/03/09 00:18:49;;;;;;;29.27;18.50;;;;;;;1.38;60.47;94488.31;5080712;28;20182;-76
2022/03/09 00:21:15;;;;;;;37.57;23.17;;;;;;;1.36;60.59;94483.31;5052855;28;20185;-76
2022/03/09 00:23:41;;;;;;;35.67;21.85;;;;;;;1.27;60.64;94479.03;5084264;28;20182;-77
2022/03/09 00:26:06;;;;;;;33.00;19.43;;;;;;;1.34;60.38;94481.84;5081717;28;20205;-77
2022/03/09 00:28:33;;;;;;;30.63;19.53;;;;;;;1.75;59.78;94483.13;5067895;28;20170;-77
2022/03/09 00:30:58;;;;;;;30.35;20.40;;;;;;;1.46;59.88;94475.56;5079984;28;20181;-77
2022/03/09 00:33:23;;;;;;;40.87;23.17;;;;;;;1.52;59.66;94477.56;5075583;28;20171;-77
2022/03/09 00:35:49;;;;;;;30.70;21.00;;;;;;;1.58;59.40;94467.63;5083745;28;20246;-76
2022/03/09 00:38:14;;;;;;;35.10;21.80;;;;;;;1.63;59.83;94479.13;5061216;28;20189;-76
2022/03/09 00:40:40;;;;;;;33.60;23.10;;;;;;;1.70;59.62;94479.34;5059029;28;20166;-77
2022/03/09 00:43:06;;;;;;;36.43;21.90;;;;;;;1.87;58.85;94464.88;5057539;28;20170;-77
2022/03/09 00:45:31;;;;;;;37.90;22.30;;;;;;;1.97;58.28;94469.97;5077591;28;20453;-77
2022/03/09 00:47:57;;;;;;;36.50;22.50;;;;;;;1.93;58.37;94465.09;5069104;28;20179;-78
2022/03/09 00:50:22;;;;;;;33.13;21.13;;;;;;;1.49;59.27;94466.72;5097539;28;20197;-77
2022/03/09 00:52:48;;;;;;;37.13;22.40;;;;;;;1.72;58.27;94469.72;5080959;28;20205;-77
2022/03/09 00:55:14;;;;;;;24.63;16.50;;;;;;;1.63;59.09;94462.81;5077361;28;20205;-77
2022/03/09 00:57:39;;;;;;;30.50;20.00;;;;;;;2.03;57.68;94459.06;5075741;28;20175;-76
2022/03/09 01:00:06;;;;;;;30.50;19.00;;;;;;;1.66;58.41;94457.41;5072199;28;20432;-77
2022/03/09 01:02:32;;;;;;;34.33;20.88;;;;;;;1.60;58.65;94456.22;5067236;28;20210;-77
2022/03/09 01:04:57;;;;;;;32.13;20.97;;;;;;;1.68;58.44;94448.56;5072368;28;20181;-78
2022/03/09 01:07:23;;;;;;;25.77;15.40;;;;;;;1.50;58.23;94453.69;5084401;28;20189;-77
2022/03/09 01:09:48;;;;;;;29.00;20.27;;;;;;;1.80;57.33;94446.56;5058762;28;20178;-77
2022/03/09 01:12:14;;;;;;;35.80;21.17;;;;;;;1.32;58.23;94434.78;5083074;28;20181;-76
2022/03/09 01:14:40;;;;;;;33.37;21.20;;;;;;;1.81;56.86;94444.81;5077537;28;20694;-76
2022/03/09 01:17:06;;;;;;;30.13;20.00;;;;;;;1.68;56.31;94437.44;5072744;28;20425;-76
2022/03/09 01:19:31;;;;;;;30.37;21.23;;;;;;;1.82;56.26;94441.28;5060186;28;20204;-76
2022/03/09 01:21:56;;;;;;;33.03;21.03;;;;;;;2.09;55.85;94438.66;5080601;28;20201;-76
2022/03/09 01:24:22;;;;;;;35.30;23.00;;;;;;;1.89;56.93;94437.97;5057618;28;20178;-76
2022/03/09 01:26:47;;;;;;;34.50;21.67;;;;;;;1.96;56.45;94440.78;5047916;28;20203;-77
2022/03/09 01:29:13;;;;;;;31.50;20.90;;;;;;;2.00;56.56;94436.94;5066077;28;20185;-77
2022/03/09 01:31:38;;;;;;;33.47;20.40;;;;;;;1.84;56.27;94434.19;5067688;28;20238;-76
2022/03/09 01:34:04;;;;;;;36.60;21.10;;;;;;;2.22;55.09;94440.03;5076795;28;20201;-76
2022/03/09 01:36:29;;;;;;;29.87;19.97;;;;;;;1.76;56.44;94437.50;5073753;28;20173;-76
2022/03/09 01:38:55;;;;;;;34.70;22.33;;;;;;;1.77;56.75;94439.16;5079398;28;20190;-76
2022/03/09 01:41:21;;;;;;;35.17;21.83;;;;;;;1.27;57.00;94448.09;5065720;28;20226;-76
2022/03/09 01:44:06;;;;;;;36.13;20.13;;;;;;;1.72;56.02;94442.13;5066175;28;20209;-76
2022/03/09 01:46:32;;;;;;;29.95;20.50;;;;;;;1.84;55.35;94441.94;5065303;28;20441;-76
2022/03/09 01:48:57;;;;;;;32.43;21.57;;;;;;;1.90;55.29;94441.38;5047086;28;20217;-76
2022/03/09 01:51:23;;;;;;;30.70;20.43;;;;;;;2.09;54.93;94446.41;5080176;28;20250;-76
2022/03/09 01:53:49;;;;;;;31.73;21.50;;;;;;;1.55;56.91;94446.31;5080210;28;20193;-77
2022/03/09 01:56:15;;;;;;;26.77;16.93;;;;;;;1.20;55.50;94439.31;5065262;28;20421;-76
2022/03/09 01:58:41;;;;;;;26.90;17.73;;;;;;;1.65;55.26;94450.59;5079571;28;20947;-77
2022/03/09 02:01:06;;;;;;;33.77;21.77;;;;;;;1.22;56.39;94444.31;5077683;28;20911;-77
2022/03/09 02:03:32;;;;;;;30.97;19.83;;;;;;;1.61;55.28;94450.06;5080289;28;20178;-76
2022/03/09 02:05:59;;;;;;;25.70;17.87;;;;;;;1.62;55.43;94446.56;5065435;28;20197;-77
2022/03/09 02:11:08;;;;;;;28.58;19.10;;;;;;;1.62;55.68;94441.41;5078019;28;20193;-77
2022/03/09 02:13:38;;;;;;;31.00;19.07;;;;;;;1.50;55.40;94442.53;5081966;28;20186;-76
2022/03/09 02:16:05;;;;;;;29.75;19.65;;;;;;;1.62;55.36;94441.41;5077139;28;20206;-76
2022/03/09 02:18:31;;;;;;;31.83;19.60;;;;;;;1.80;55.07;94448.34;5067840;28;20238;-77
2022/03/09 02:21:01;;;;;;;30.70;18.47;;;;;;;2.02;54.65;94439.38;5065714;28;20182;-76
2022/03/09 02:23:26;;;;;;;30.45;20.63;;;;;;;1.59;54.84;94441.69;5081698;28;20541;-76
2022/03/09 02:25:52;;;;;;;27.40;19.80;;;;;;;1.68;54.71;94440.81;5062626;28;20194;-76
2022/03/09 02:28:18;;;;;;;33.00;19.43;;;;;;;1.83;53.94;94440.31;5072561;28;20170;-76
2022/03/09 02:30:43;;;;;;;34.50;22.50;;;;;;;1.58;55.21;94437.50;5069412;28;20239;-76
2022/03/09 02:33:08;;;;;;;31.10;19.57;;;;;;;1.70;54.75;94438.91;5051371;28;20182;-76
2022/03/09 02:35:34;;;;;;;29.43;19.80;;;;;;;1.99;54.12;94437.09;5077112;28;20177;-76
2022/03/09 02:37:59;;;;;;;41.07;20.37;;;;;;;1.67;54.35;94434.03;5075463;28;20271;-76
2022/03/09 02:40:25;;;;;;;31.03;20.90;;;;;;;1.96;54.33;94427.88;5072945;28;20200;-76
2022/03/09 02:42:50;;;;;;;27.23;18.33;;;;;;;1.38;55.05;94436.75;5081956;28;20178;-77
2022/03/09 02:45:17;;;;;;;31.67;21.00;;;;;;;1.35;55.41;94435.28;5076226;28;20189;-76
2022/03/09 02:47:44;;;;;;;29.35;19.30;;;;;;;1.47;55.41;94437.69;5089515;28;20177;-77
2022/03/09 02:50:10;;;;;;;26.38;19.35;;;;;;;1.71;54.52;94432.78;5070152;28;20183;-76
2022/03/09 02:52:40;;;;;;;31.13;19.07;;;;;;;1.28;55.32;94436.00;5069498;28;20163;-76
2022/03/09 02:55:07;;;;;;;34.08;20.30;;;;;;;1.38;55.33;94438.53;5071596;28;20185;-77
2022/03/09 02:57:33;;;;;;;35.97;21.60;;;;;;;1.14;55.53;94437.31;5080699;28;20193;-76
2022/03/09 02:59:58;;;;;;;29.33;19.27;;;;;;;1.32;55.30;94440.72;5071659;28;20209;-76
2022/03/09 03:02:24;;;;;;;30.63;19.40;;;;;;;1.15;55.48;94434.56;5059702;28;20179;-76
2022/03/09 03:04:50;;;;;;;24.73;18.37;;;;;;;0.95;55.89;94435.59;5082676;28;20190;-76
2022/03/09 03:07:15;;;;;;;21.33;14.27;;;;;;;0.06;59.14;94435.84;5068215;28;20191;-77
2022/03/09 03:09:41;;;;;;;21.70;16.07;;;;;;;0.46;58.06;94430.56;5069830;28;20190;-76
2022/03/09 03:12:06;;;;;;;21.60;14.77;;;;;;;-0.16;59.58;94427.47;5089243;28;20166;-76
2022/03/09 03:14:32;;;;;;;27.57;16.63;;;;;;;0.18;59.04;94442.50;5070506;28;20222;-76
2022/03/09 03:16:57;;;;;;;16.07;10.83;;;;;;;0.30;58.24;94438.81;5082145;28;20261;-76
2022/03/09 03:19:22;;;;;;;33.20;18.90;;;;;;;0.44;58.36;94439.34;5068382;28;20178;-76
2022/03/09 03:21:48;;;;;;;30.23;18.60;;;;;;;0.94;56.81;94450.22;5087682;28;20200;-76
2022/03/09 03:24:13;;;;;;;25.30;17.50;;;;;;;0.11;58.15;94443.97;5076897;28;20190;-76
2022/03/09 03:26:39;;;;;;;30.43;19.07;;;;;;;0.42;58.40;94446.41;5050434;28;20190;-76
2022/03/09 03:29:04;;;;;;;29.03;17.63;;;;;;;1.25;55.99;94449.16;5050261;28;20194;-76
2022/03/09 03:31:30;;;;;;;30.13;18.90;;;;;;;1.30;56.20;94445.22;5085176;28;20181;-78
2022/03/09 03:33:56;;;;;;;26.67;19.53;;;;;;;1.13;55.89;94448.53;5079189;28;20542;-77
2022/03/09 03:36:22;;;;;;;19.13;11.50;;;;;;;0.72;56.77;94450.56;5081072;28;20587;-76
2022/03/09 03:38:47;;;;;;;30.17;18.13;;;;;;;1.16;56.53;94453.44;5070682;28;20186;-76
2022/03/09 03:41:13;;;;;;;26.70;18.63;;;;;;;1.09;55.70;94450.59;5068887;28;20167;-77
2022/03/09 03:43:39;;;;;;;24.60;15.50;;;;;;;0.97;55.54;94441.44;5081281;28;20182;-77
2022/03/09 03:46:04;;;;;;;25.87;13.30;;;;;;;0.53;57.26;94453.97;5068733;28;20195;-76
2022/03/09 03:48:30;;;;;;;24.40;15.57;;;;;;;0.80;56.05;94455.84;5069617;28;20182;-76
2022/03/09 03:50:55;;;;;;;24.90;14.77;;;;;;;-0.10;57.97;94456.97;5068163;28;20242;-77
2022/03/09 03:53:21;;;;;;;29.43;15.47;;;;;;;0.02;57.78;94450.75;5068364;28;20189;-76
2022/03/09 03:55:46;;;;;;;25.90;15.87;;;;;;;0.17;57.67;94459.69;5087543;28;20257;-76
2022/03/09 03:58:12;;;;;;;29.43;20.30;;;;;;;0.60;57.49;94449.09;5087364;28;20563;-76
2022/03/09 04:00:37;;;;;;;26.90;17.17;;;;;;;0.62;57.42;94448.00;5072363;28;20270;-77
2022/03/09 04:03:03;;;;;;;22.93;15.87;;;;;;;0.45;56.87;94444.38;5084108;28;20253;-76
2022/03/09 04:05:29;;;;;;;23.20;12.97;;;;;;;-0.08;58.48;94444.78;5070405;28;20225;-76
2022/03/09 04:07:55;;;;;;;24.52;17.77;;;;;;;0.21;58.19;94443.97;5067542;28;20174;-77
2022/03/09 04:10:21;;;;;;;28.27;19.07;;;;;;;0.46;57.11;94453.72;5084035;28;20204;-76
2022/03/09 04:12:46;;;;;;;30.57;19.20;;;;;;;0.67;56.63;94447.59;5055964;28;20424;-77
2022/03/09 04:15:12;;;;;;;34.27;21.07;;;;;;;0.97;55.33;94449.97;5066968;28;20229;-77
2022/03/09 04:17:45;;;;;;;19.73;15.17;;;;;;;0.09;57.15;94440.72;5075258;28;20647;-77
2022/03/09 04:20:13;;;;;;;29.55;17.85;;;;;;;0.10;57.98;94447.53;5085441;28;20435;-76
2022/03/09 04:22:38;;;;;;;24.67;17.40;;;;;;;0.30;56.89;94438.81;5079615;28;20202;-77
2022/03/09 04:25:05;;;;;;;24.03;18.90;;;;;;;-0.23;58.67;94442.63;5080965;28;20243;-77
2022/03/09 04:27:30;;;;;;;34.05;19.17;;;;;;;0.36;57.98;94452.91;5060061;28;20177;-76
2022/03/09 04:29:56;;;;;;;25.73;18.70;;;;;;;-0.03;58.16;94450.34;5084872;28;20241;-77
2022/03/09 04:32:22;;;;;;;28.00;17.97;;;;;;;-0.50;59.16;94455.28;5050327;28;20186;-76
2022/03/09 04:34:47;;;;;;;27.73;18.57;;;;;;;0.20;57.68;94456.03;5078493;28;20427;-76
2022/03/09 04:37:13;;;;;;;19.90;13.13;;;;;;;-0.08;58.52;94455.06;5082348;28;20645;-77
2022/03/09 04:39:38;;;;;;;30.00;19.77;;;;;;;0.02;58.18;94455.91;5077534;28;20178;-76
2022/03/09 04:42:03;;;;;;;25.37;17.57;;;;;;;0.47;56.79;94455.34;5072867;28;20177;-76
2022/03/09 04:44:29;;;;;;;35.23;19.27;;;;;;;0.75;56.42;94445.13;5077019;28;20175;-76
2022/03/09 04:46:54;;;;;;;27.30;17.60;;;;;;;0.82;56.25;94451.34;5085681;28;20217;-76
2022/03/09 04:49:20;;;;;;;34.63;21.37;;;;;;;0.87;56.40;94446.56;5084514;28;20188;-76
2022/03/09 04:51:45;;;;;;;32.73;20.53;;;;;;;0.37;57.07;94449.41;5073602;28;20174;-76
2022/03/09 04:54:11;;;;;;;29.37;19.67;;;;;;;1.09;55.73;94460.09;5075839;28;20185;-76
2022/03/09 04:56:37;;;;;;;17.17;13.20;;;;;;;0.94;55.92;94460.53;5078565;28;20170;-77
2022/03/09 04:59:03;;;;;;;24.75;18.52;;;;;;;1.10;55.63;94459.97;5084987;28;20185;-77
2022/03/09 05:01:28;;;;;;;31.60;20.97;;;;;;;0.63;56.51;94451.41;5074705;28;20166;-77
2022/03/09 05:03:54;;;;;;;28.07;18.20;;;;;;;0.81;56.02;94452.28;5065898;28;20242;-77
2022/03/09 05:06:19;;;;;;;31.60;18.37;;;;;;;0.39;57.56;94453.44;5077169;28;20197;-77
2022/03/09 05:08:45;;;;;;;30.53;18.23;;;;;;;0.41;57.29;94455.88;5072377;28;20181;-78
2022/03/09 05:11:10;;;;;;;34.53;20.60;;;;;;;1.00;55.76;94460.94;5074591;28;20333;-77
2022/03/09 05:13:36;;;;;;;31.80;21.27;;;;;;;0.74;56.41;94464.09;5079790;28;20182;-77
2022/03/09 05:16:02;;;;;;;18.67;13.87;;;;;;;0.51;57.39;94467.00;5074856;28;20240;-77
2022/03/09 05:18:28;;;;;;;15.43;12.77;;;;;;;0.05;57.64;94467.69;5069916;28;20174;-76
2022/03/09 05:20:53;;;;;;;33.90;22.37;;;;;;;0.04;58.24;94474.59;5074048;28;20265;-77
2022/03/09 05:23:22;;;;;;;20.83;15.30;;;;;;;-0.02;58.42;94470.78;5084270;28;20170;-76
2022/03/09 05:25:47;;;;;;;32.13;21.40;;;;;;;0.55;57.50;94473.50;5066278;28;20210;-77
2022/03/09 05:28:21;;;;;;;31.97;18.57;;;;;;;0.78;56.35;94479.16;5075273;28;20233;-77
2022/03/09 05:31:10;;;;;;;12.35;9.55;;;;;;;0.06;58.06;94482.97;5061756;28;20276;-77
2022/03/09 05:33:35;;;;;;;31.25;19.52;;;;;;;0.62;57.45;94484.03;5043149;28;20206;-77
2022/03/09 05:36:01;;;;;;;31.77;21.07;;;;;;;1.34;55.77;94481.84;5079995;28;20158;-77
2022/03/09 05:38:26;;;;;;;34.03;20.23;;;;;;;1.20;55.94;94485.69;5054824;28;20170;-78
2022/03/09 05:40:51;;;;;;;31.63;20.93;;;;;;;1.41;55.35;94484.66;5085611;28;20174;-77
2022/03/09 05:43:28;;;;;;;40.23;23.17;;;;;;;1.09;55.45;94488.44;5071708;28;20250;-77
2022/03/09 05:45:54;;;;;;;25.70;17.00;;;;;;;1.18;55.43;94490.16;5027937;28;20222;-77
2022/03/09 05:48:19;;;;;;;34.07;22.20;;;;;;;0.96;56.63;94488.72;5072307;28;20173;-77
2022/03/09 05:50:45;;;;;;;17.47;13.67;;;;;;;0.44;57.61;94495.97;5068373;28;20209;-77
2022/03/09 05:53:10;;;;;;;30.73;20.63;;;;;;;0.73;57.12;94495.97;5074827;28;20174;-77
2022/03/09 05:55:36;;;;;;;32.40;21.17;;;;;;;0.84;56.77;94495.00;5048616;28;20190;-76
2022/03/09 05:58:01;;;;;;;35.30;21.63;;;;;;;0.72;57.18;94495.16;5073107;28;20181;-77
2022/03/09 06:00:27;;;;;;;24.37;16.47;;;;;;;0.18;58.01;94497.31;5076306;28;20205;-76
2022/03/09 06:02:52;;;;;;;31.57;20.47;;;;;;;0.67;57.80;94496.53;5078726;28;20224;-77
2022/03/09 06:05:18;;;;;;;35.27;21.77;;;;;;;0.97;56.26;94504.06;5078621;28;20185;-77
2022/03/09 06:07:44;;;;;;;34.53;20.07;;;;;;;0.33;57.60;94499.50;5061266;28;20190;-77
2022/03/09 06:10:09;;;;;;;33.07;20.60;;;;;;;0.79;57.05;94495.41;5064354;28;20599;-76
2022/03/09 06:12:35;;;;;;;31.17;21.43;;;;;;;1.26;55.77;94503.16;5070009;28;20177;-77
2022/03/09 06:15:00;;;;;;;27.93;18.13;;;;;;;1.20;54.97;94503.72;5070251;28;20716;-77
2022/03/09 06:17:26;;;;;;;33.17;20.87;;;;;;;1.06;56.66;94504.97;5045442;28;20170;-77
2022/03/09 06:19:51;;;;;;;33.10;22.57;;;;;;;1.40;54.96;94504.47;5061373;28;20194;-76
2022/03/09 06:22:17;;;;;;;36.53;23.10;;;;;;;1.83;54.21;94504.81;5062594;28;20186;-77
2022/03/09 06:24:42;;;;;;;34.93;21.13;;;;;;;1.70;54.78;94508.53;5053764;28;20190;-77
2022/03/09 06:27:08;;;;;;;39.20;23.80;;;;;;;1.80;54.90;94505.91;5037268;28;20257;-77
2022/03/09 06:29:33;;;;;;;28.33;18.07;;;;;;;1.30;55.64;94504.50;5065638;28;20194;-77
2022/03/09 06:32:00;;;;;;;28.90;18.80;;;;;;;1.51;54.64;94508.63;5061540;28;20178;-77
2022/03/09 06:34:26;;;;;;;27.50;20.23;;;;;;;1.20;55.82;94510.66;5044086;28;20183;-76
2022/03/09 06:36:52;;;;;;;31.30;20.95;;;;;;;1.08;55.24;94507.41;5057817;28;20179;-76
2022/03/09 06:39:17;;;;;;;42.87;23.57;;;;;;;1.36;55.40;94519.38;5056251;28;20190;-77
2022/03/09 06:41:45;;;;;;;37.10;19.97;;;;;;;1.39;54.56;94510.59;5058660;28;20225;-77
2022/03/09 06:44:12;;;;;;;39.17;23.58;;;;;;;1.33;55.07;94509.38;5038832;28;20179;-77
2022/03/09 06:46:38;;;;;;;35.85;23.45;;;;;;;1.69;54.07;94514.66;5056059;28;20202;-77
2022/03/09 06:49:03;;;;;;;27.83;16.95;;;;;;;1.49;53.53;94511.34;5052435;28;20183;-77
2022/03/09 06:51:29;;;;;;;30.23;20.60;;;;;;;1.36;53.70;94523.75;5052881;28;20179;-77
2022/03/09 06:53:54;;;;;;;34.93;20.60;;;;;;;1.94;52.83;94528.66;5061619;28;20281;-77
2022/03/09 06:56:20;;;;;;;36.37;20.30;;;;;;;2.37;51.17;94528.09;5063769;28;20175;-77
2022/03/09 06:58:46;;;;;;;36.37;25.97;;;;;;;2.83;50.59;94527.06;5063009;28;20669;-77
2022/03/09 07:01:11;;;;;;;29.07;19.73;;;;;;;2.93;49.87;94521.81;5034218;28;20184;-77
2022/03/09 07:03:37;;;;;;;28.60;16.50;;;;;;;2.65;50.69;94526.28;5041967;28;20175;-77
2022/03/09 07:06:03;;;;;;;32.00;22.43;;;;;;;2.47;50.95;94523.69;5054089;28;20683;-77
2022/03/09 07:08:29;;;;;;;27.00;17.37;;;;;;;2.77;49.66;94525.09;5024911;28;20172;-76
2022/03/09 07:10:54;;;;;;;29.20;18.47;;;;;;;3.17;49.30;94515.16;5059284;28;20440;-77
2022/03/09 07:13:20;;;;;;;35.20;22.17;;;;;;;3.03;49.54;94513.97;5048371;28;20406;-77
2022/03/09 07:15:46;;;;;;;27.00;17.17;;;;;;;3.08;48.63;94516.91;5073718;28;20253;-77
2022/03/09 07:18:11;;;;;;;18.73;13.60;;;;;;;3.08;49.16;94511.75;5080822;28;20208;-77
2022/03/09 07:20:37;;;;;;;31.60;19.30;;;;;;;2.79;49.90;94518.00;5085405;28;20189;-76
2022/03/09 07:23:02;;;;;;;22.77;17.27;;;;;;;2.08;51.17;94511.84;5067962;28;20163;-77
2022/03/09 07:25:28;;;;;;;28.37;18.27;;;;;;;2.30;51.28;94518.38;5079355;28;20272;-76
2022/03/09 07:27:53;;;;;;;28.40;17.10;;;;;;;2.20;50.38;94516.81;5049592;28;20175;-76
2022/03/09 07:30:19;;;;;;;25.70;17.73;;;;;;;2.80;49.15;94514.44;5082476;28;20597;-76
2022/03/09 07:32:44;;;;;;;28.07;18.90;;;;;;;3.03;48.91;94519.13;5058833;28;20243;-77
2022/03/09 07:35:10;;;;;;;29.83;12.93;;;;;;;2.49;48.51;94511.44;5082532;28;20186;-76
2022/03/09 07:37:37;;;;;;;24.63;17.03;;;;;;;2.21;50.44;94523.59;5079278;28;20239;-76
2022/03/09 07:40:06;;;;;;;33.20;19.70;;;;;;;3.11;49.45;94503.66;5073085;28;20204;-77
2022/03/09 07:42:32;;;;;;;31.90;19.33;;;;;;;3.00;48.79;94515.09;5077916;28;20415;-77
2022/03/09 07:44:57;;;;;;;27.57;18.50;;;;;;;3.71;47.96;94513.22;5068033;28;20275;-77
2022/03/09 07:47:23;;;;;;;27.37;19.27;;;;;;;3.87;46.90;94512.44;5077702;28;20194;-77
2022/03/09 07:49:48;;;;;;;28.73;20.13;;;;;;;3.76;46.44;94499.81;5081086;28;20629;-76
2022/03/09 07:52:14;;;;;;;21.53;16.97;;;;;;;4.27;45.60;94493.66;5083821;28;20182;-76
2022/03/09 07:54:39;;;;;;;27.83;20.00;;;;;;;4.29;45.96;94493.50;5067860;28;20191;-77
2022/03/09 07:57:05;;;;;;;39.23;22.33;;;;;;;3.03;47.75;94498.44;5077112;28;20293;-77
2022/03/09 07:59:31;;;;;;;46.50;21.00;;;;;;;3.66;47.93;94500.75;5075203;28;20186;-76
2022/03/09 08:01:57;;;;;;;24.27;13.93;;;;;;;2.74;48.66;94499.53;5052935;28;20255;-76
2022/03/09 08:04:23;;;;;;;30.50;22.03;;;;;;;2.64;49.75;94493.66;5069517;28;20429;-76
2022/03/09 08:06:50;;;;;;;22.98;16.27;;;;;;;2.84;50.27;94500.25;5061970;28;20248;-77
2022/03/09 08:09:17;;;;;;;26.30;18.20;;;;;;;2.99;48.51;94500.53;5056018;28;20228;-76
2022/03/09 08:11:43;;;;;;;30.93;19.80;;;;;;;3.69;48.46;94499.63;5074600;28;20429;-77
2022/03/09 08:14:10;;;;;;;24.20;14.73;;;;;;;3.51;48.10;94497.13;5048773;28;21114;-76
2022/03/09 08:16:35;;;;;;;26.67;20.03;;;;;;;3.94;48.39;94491.94;5058045;28;20628;-77
2022/03/09 08:19:01;;;;;;;24.77;14.07;;;;;;;3.22;48.82;94495.66;5058339;28;20536;-76
2022/03/09 08:21:26;;;;;;;28.43;18.60;;;;;;;4.16;47.33;94487.97;5034729;28;20188;-78
2022/03/09 08:23:52;;;;;;;28.00;18.80;;;;;;;3.09;49.96;94496.09;5047309;28;20648;-76
2022/03/09 08:26:18;;;;;;;30.47;17.87;;;;;;;2.71;50.43;94489.50;5036994;28;20214;-76
2022/03/09 08:28:44;;;;;;;22.80;16.40;;;;;;;2.65;50.22;94485.75;5048048;28;20175;-76
2022/03/09 08:31:09;;;;;;;35.43;24.63;;;;;;;2.99;50.40;94486.78;5044577;28;20461;-76
2022/03/09 08:33:35;;;;;;;26.63;17.77;;;;;;;4.13;47.48;94483.09;5042578;28;20193;-76
2022/03/09 08:36:00;;;;;;;32.60;20.50;;;;;;;3.18;49.29;94486.59;5055573;28;20189;-77
2022/03/09 08:38:26;;;;;;;40.60;28.33;;;;;;;3.82;47.74;94488.84;5056502;28;20184;-77
2022/03/09 08:40:51;;;;;;;28.53;19.87;;;;;;;4.81;46.23;94475.03;5043107;28;20245;-77
2022/03/09 08:43:17;;;;;;;27.77;14.90;;;;;;;4.66;46.36;94479.25;5054867;28;20242;-76
2022/03/09 08:45:44;;;;;;;32.43;20.30;;;;;;;5.06;46.26;94482.78;5062673;28;20209;-77
2022/03/09 08:48:10;;;;;;;31.27;24.23;;;;;;;4.65;47.19;94486.22;5059737;28;20413;-76
2022/03/09 08:50:35;;;;;;;21.70;15.10;;;;;;;4.01;47.68;94478.22;5049416;28;20440;-77
2022/03/09 08:53:01;;;;;;;22.10;14.83;;;;;;;3.80;48.62;94480.41;5039203;28;20241;-77
2022/03/09 08:55:26;;;;;;;30.60;19.40;;;;;;;3.95;49.35;94478.84;5059123;28;20183;-76
2022/03/09 08:57:52;;;;;;;32.83;21.30;;;;;;;4.39;48.74;94480.38;5054777;28;20242;-76
2022/03/09 09:00:17;;;;;;;31.17;17.97;;;;;;;3.93;49.02;94485.97;5050902;28;20172;-76
2022/03/09 09:03:00;;;;;;;33.20;18.13;;;;;;;4.13;48.98;94477.91;5061299;28;20666;-77
2022/03/09 09:05:26;;;;;;;32.87;20.83;;;;;;;4.17;49.48;94476.63;5057123;28;20191;-76
2022/03/09 09:07:51;;;;;;;25.90;19.40;;;;;;;4.62;48.17;94475.38;5045048;28;20415;-76
2022/03/09 09:10:17;;;;;;;31.30;21.10;;;;;;;5.52;46.68;94472.66;5050239;28;20230;-76
2022/03/09 09:12:42;;;;;;;30.20;19.77;;;;;;;4.91;47.73;94468.88;5055255;28;20983;-76
2022/03/09 09:15:08;;;;;;;29.20;20.33;;;;;;;4.27;48.67;94459.16;5033050;28;20254;-77
2022/03/09 09:17:35;;;;;;;36.37;20.50;;;;;;;5.12;46.56;94471.75;5035111;28;20214;-76
2022/03/09 09:20:00;;;;;;;12.20;7.30;;;;;;;4.65;47.58;94465.50;5065983;28;20425;-76
2022/03/09 09:22:26;;;;;;;50.23;27.13;;;;;;;3.80;51.26;94476.03;5057909;28;20186;-76
2022/03/09 09:24:51;;;;;;;31.97;20.67;;;;;;;4.86;48.43;94472.78;5062172;28;20178;-77
2022/03/09 09:27:17;;;;;;;29.30;18.47;;;;;;;5.33;46.42;94470.44;5043168;28;20209;-76
2022/03/09 09:29:42;;;;;;;31.43;18.40;;;;;;;5.41;46.87;94467.81;5057225;28;20206;-76
2022/03/09 09:32:08;;;;;;;19.10;14.90;;;;;;;4.69;47.25;94458.22;5057243;28;20242;-76
2022/03/09 09:34:34;;;;;;;29.97;19.30;;;;;;;4.39;48.54;94470.81;5059856;28;20178;-76
2022/03/09 09:37:02;;;;;;;20.70;13.90;;;;;;;4.18;47.89;94462.72;5051169;28;20430;-77
2022/03/09 09:39:28;;;;;;;31.10;18.47;;;;;;;5.03;47.37;94468.38;5062079;28;20241;-76
2022/03/09 09:41:53;;;;;;;25.40;17.23;;;;;;;5.34;45.99;94470.25;5048571;28;20437;-76
2022/03/09 09:44:21;;;;;;;18.47;10.37;;;;;;;5.44;45.26;94464.88;5060130;28;20501;-77
2022/03/09 09:46:46;;;;;;;29.77;18.90;;;;;;;5.76;45.14;94476.13;5057974;28;20275;-77
2022/03/09 09:49:14;;;;;;;31.10;19.63;;;;;;;5.37;45.56;94475.13;5062707;28;20513;-77
2022/03/09 09:51:42;;;;;;;23.27;17.67;;;;;;;4.71;46.14;94468.44;5057232;28;20243;-77
2022/03/09 09:54:10;;;;;;;29.53;19.30;;;;;;;5.77;44.64;94472.56;5056366;28;20516;-76
2022/03/09 09:56:40;;;;;;;21.07;16.37;;;;;;;6.21;44.26;94477.25;5054159;28;20437;-77
2022/03/09 09:59:06;;;;;;;29.90;18.30;;;;;;;6.68;43.45;94468.47;5063651;28;20427;-76
2022/03/09 10:01:32;;;;;;;24.53;18.83;;;;;;;6.37;43.62;94465.94;5076745;28;20442;-76
2022/03/09 10:03:58;;;;;;;24.20;16.70;;;;;;;6.39;43.44;94472.59;5066626;28;20409;-77
2022/03/09 10:06:24;;;;;;;22.03;18.00;;;;;;;4.79;46.30;94466.63;5063941;28;20484;-76
2022/03/09 10:08:59;;;;;;;17.50;14.03;;;;;;;5.24;45.93;94460.09;5065336;28;20179;-76
2022/03/09 10:11:25;;;;;;;18.43;14.43;;;;;;;5.44;45.44;94463.13;5057106;28;20182;-77
2022/03/09 10:13:50;;;;;;;20.43;14.20;;;;;;;4.59;46.55;94452.38;5072666;28;20804;-76
2022/03/09 10:16:20;;;;;;;23.67;15.63;;;;;;;5.50;45.13;94459.00;5065234;28;20261;-76
2022/03/09 10:18:54;;;;;;;9.90;8.90;;;;;;;4.83;45.28;94464.53;5070349;28;20260;-76
2022/03/09 10:21:26;;;;;;;21.00;15.70;;;;;;;4.43;47.63;94459.16;5044802;28;20462;-76
2022/03/09 10:23:56;;;;;;;19.07;13.87;;;;;;;4.94;46.57;94461.59;5046562;28;20507;-76
2022/03/09 10:26:45;;;;;;;18.47;12.97;;;;;;;5.68;45.45;94461.41;5081856;28;20471;-77
2022/03/09 10:29:15;;;;;;;19.60;13.83;;;;;;;6.39;43.59;94454.41;5069580;28;20420;-76
2022/03/09 10:31:46;;;;;;;22.70;17.27;;;;;;;5.98;44.10;94441.66;5049292;28;20445;-77
2022/03/09 10:34:12;;;;;;;19.20;13.50;;;;;;;6.68;41.50;94455.47;5062839;28;20426;-76
2022/03/09 10:37:02;;;;;;;27.83;13.40;;;;;;;6.27;42.41;94453.16;5068974;28;20513;-76
2022/03/09 10:39:34;;;;;;;18.30;12.97;;;;;;;6.54;42.19;94451.03;5079315;28;20923;-76
2022/03/09 10:42:03;;;;;;;11.23;9.13;;;;;;;6.44;40.64;94457.25;5071056;28;20436;-76
2022/03/09 10:44:49;;;;;;;13.83;11.90;;;;;;;5.72;42.03;94460.09;5066661;28;20421;-76
2022/03/09 10:47:35;;;;;;;11.63;9.97;;;;;;;5.07;44.89;94448.13;5068107;28;20548;-77
2022/03/09 10:50:14;;;;;;;12.90;10.00;;;;;;;4.94;44.33;94435.66;5074229;28;20416;-76
2022/03/09 10:52:57;;;;;;;22.10;13.30;;;;;;;6.73;42.00;94447.94;5066211;28;20452;-76
2022/03/09 10:55:36;;;;;;;12.60;9.63;;;;;;;6.54;40.57;94441.44;5042120;28;20428;-76
2022/03/09 10:58:10;;;;;;;15.37;11.80;;;;;;;6.90;40.45;94445.22;5059802;28;20417;-77
2022/03/09 11:00:41;;;;;;;20.13;12.40;;;;;;;7.03;40.41;94437.63;5067899;28;20954;-76
2022/03/09 11:03:25;;;;;;;17.40;14.93;;;;;;;6.90;40.77;94432.22;5078237;28;20794;-76
2022/03/09 11:05:54;;;;;;;13.13;10.73;;;;;;;6.32;42.05;94437.88;5032554;28;20509;-76
2022/03/09 11:08:22;;;;;;;17.67;12.23;;;;;;;7.07;41.01;94436.25;5072763;28;20464;-76
2022/03/09 11:10:49;;;;;;;17.90;12.27;;;;;;;7.30;39.78;94425.78;5072696;28;20447;-76
2022/03/09 11:13:15;;;;;;;13.73;11.00;;;;;;;7.29;38.76;94428.59;5057224;28;20482;-77
2022/03/09 11:15:42;;;;;;;15.03;10.50;;;;;;;6.56;39.59;94431.66;5067767;28;20557;-77
2022/03/09 11:18:28;;;;;;;15.37;12.50;;;;;;;7.12;36.59;94418.34;5078895;28;20419;-76
2022/03/09 11:21:01;;;;;;;9.60;7.57;;;;;;;5.93;35.10;94417.16;5048635;28;20436;-76
2022/03/09 11:23:29;;;;;;;12.97;8.10;;;;;;;6.06;38.72;94418.22;5091580;28;20425;-76
2022/03/09 11:26:05;;;;;;;17.30;12.10;;;;;;;7.48;37.58;94412.41;5071243;28;20476;-76